Airport View

Enter AWOS ICAO identifier for current METAR.

ex. KFNL

KAVC 200005Z AUTO 00000KT 10SM CLR 15/14 A3030 RMK AO2 T01460135

20 Oct 2020 00:09

Frequency: 127.525

Phone: 434-729-2229

Other Area AWOS: KLVL - KW31 - KCXE - KBKT

TAF KRWI 192333Z 2000/2024 00000KT P6SM OVC050 FM200400 00000KT 2SM BR SCT003 FM200600 00000KT 1/2SM FG OVC002 FM201400 00000KT 3SM BR BKN004 FM201900 VRB03KT P6SM BKN035